createdAt,value
2022-12-31T00:00:08.195Z,12.52
2022-12-31T00:01:12.198Z,13.57
2022-12-31T00:02:14.669Z,11.13
2022-12-31T00:03:17.154Z,13.48
2022-12-31T00:04:19.587Z,12.32
2022-12-31T00:05:22.631Z,11.60
2022-12-31T00:06:31.192Z,11.70
2022-12-31T00:08:37.128Z,12.35
2022-12-31T00:09:39.390Z,14.02
2022-12-31T00:10:41.881Z,12.40
2022-12-31T00:11:44.510Z,11.80
2022-12-31T00:12:46.905Z,11.50
2022-12-31T00:13:50.199Z,11.50
2022-12-31T00:14:52.648Z,10.27
2022-12-31T00:15:55.049Z,12.63
2022-12-31T00:16:57.414Z,11.85
2022-12-31T00:17:59.864Z,13.48
2022-12-31T00:19:03.028Z,13.27
2022-12-31T00:20:05.914Z,12.98
2022-12-31T00:21:09.534Z,10.05
2022-12-31T00:22:11.794Z,11.77
2022-12-31T00:23:15.483Z,10.30
2022-12-31T00:24:17.801Z,10.10
2022-12-31T00:25:20.122Z,10.93
2022-12-31T00:26:25.564Z,9.48
2022-12-31T00:27:31.275Z,10.32
2022-12-31T00:28:34.676Z,12.50
2022-12-31T00:29:37.109Z,10.93
2022-12-31T00:30:39.433Z,10.52
2022-12-31T00:31:41.907Z,9.85
2022-12-31T00:32:44.261Z,9.00
2022-12-31T00:33:46.667Z,9.15
2022-12-31T00:34:49.003Z,10.02
2022-12-31T00:35:51.347Z,10.57
2022-12-31T00:36:53.632Z,9.48
2022-12-31T00:37:56.010Z,10.68
2022-12-31T00:38:59.899Z,9.02
2022-12-31T00:40:02.324Z,9.45
2022-12-31T00:41:07.228Z,12.77
2022-12-31T00:42:09.535Z,9.05
2022-12-31T00:43:11.823Z,15.85
2022-12-31T00:44:14.246Z,11.73
2022-12-31T00:45:16.670Z,10.40
2022-12-31T00:46:20.106Z,9.35
2022-12-31T00:47:24.525Z,11.90
2022-12-31T00:48:27.430Z,10.70
2022-12-31T00:49:29.822Z,14.38
2022-12-31T00:50:32.182Z,11.05
2022-12-31T00:51:34.573Z,11.15
2022-12-31T00:52:37.005Z,23.63
2022-12-31T00:53:39.677Z,70.40
2022-12-31T00:54:42.003Z,52.53
2022-12-31T00:55:44.306Z,56.83
2022-12-31T00:56:46.591Z,34.60
2022-12-31T00:57:48.876Z,38.58
2022-12-31T00:58:51.566Z,24.48
2022-12-31T00:59:53.865Z,18.88
2022-12-31T01:00:56.623Z,18.90
2022-12-31T01:01:59.149Z,17.88
2022-12-31T01:03:01.700Z,14.02
2022-12-31T01:04:10.936Z,12.77
2022-12-31T01:05:13.193Z,8.32
2022-12-31T01:06:16.573Z,8.25
2022-12-31T01:07:19.276Z,6.25
2022-12-31T01:08:21.518Z,5.15
2022-12-31T01:09:23.803Z,7.82
2022-12-31T01:10:44.879Z,10.00
2022-12-31T01:11:49.701Z,8.93
2022-12-31T01:12:52.052Z,9.43
2022-12-31T01:13:59.135Z,9.18
2022-12-31T01:15:01.480Z,7.90
2022-12-31T01:16:08.818Z,10.48
2022-12-31T01:17:13.195Z,6.55
2022-12-31T01:18:15.526Z,7.53
2022-12-31T01:19:24.052Z,6.05
2022-12-31T01:20:26.329Z,8.07
2022-12-31T01:21:29.819Z,6.18
2022-12-31T01:22:32.335Z,5.75
2022-12-31T01:23:35.018Z,5.93
2022-12-31T01:24:37.280Z,10.63
2022-12-31T01:25:41.879Z,12.70
2022-12-31T01:26:44.991Z,32.38
2022-12-31T01:27:47.413Z,35.30
2022-12-31T01:28:49.871Z,26.27
2022-12-31T01:29:52.192Z,17.40
2022-12-31T01:30:55.439Z,22.45
2022-12-31T01:31:57.930Z,31.83
2022-12-31T01:33:00.463Z,16.98
2022-12-31T01:34:03.882Z,13.95
2022-12-31T01:35:06.708Z,11.18
2022-12-31T01:36:12.777Z,9.20
2022-12-31T01:37:15.058Z,10.38
2022-12-31T01:38:17.434Z,7.75
2022-12-31T01:39:19.735Z,7.35
2022-12-31T01:40:22.130Z,7.38
2022-12-31T01:41:33.481Z,7.85
2022-12-31T01:42:35.905Z,8.05
2022-12-31T01:43:46.363Z,5.32
2022-12-31T01:44:52.929Z,6.95
2022-12-31T01:45:55.434Z,5.68
2022-12-31T01:47:05.436Z,7.28
2022-12-31T01:48:12.320Z,5.82
2022-12-31T01:49:40.346Z,6.40
2022-12-31T01:50:44.390Z,5.82
2022-12-31T01:51:52.328Z,6.05
2022-12-31T01:52:58.827Z,7.18
2022-12-31T01:54:05.685Z,6.35
2022-12-31T01:55:37.908Z,4.90
2022-12-31T01:56:41.943Z,5.03
2022-12-31T01:57:47.830Z,6.60
2022-12-31T01:58:52.352Z,4.03
2022-12-31T01:59:56.377Z,4.93
2022-12-31T02:00:59.210Z,6.47
2022-12-31T02:02:01.981Z,5.60
2022-12-31T02:03:06.874Z,4.63
2022-12-31T02:04:12.944Z,5.40
2022-12-31T02:05:46.021Z,4.43
2022-12-31T02:06:53.556Z,5.47
2022-12-31T02:07:57.269Z,3.63
2022-12-31T02:08:59.950Z,4.95
2022-12-31T02:10:02.349Z,2.70
2022-12-31T02:11:20.843Z,4.57
2022-12-31T02:12:23.643Z,4.35
2022-12-31T02:13:26.199Z,4.72
2022-12-31T02:14:35.079Z,87.82
2022-12-31T02:15:45.811Z,35.28
2022-12-31T02:17:15.190Z,93.78
2022-12-31T02:18:25.291Z,44.90
2022-12-31T02:19:42.398Z,23.83
2022-12-31T02:21:06.065Z,17.33
2022-12-31T02:22:45.565Z,14.05
2022-12-31T02:24:06.497Z,12.52
2022-12-31T02:25:46.139Z,9.35
2022-12-31T02:26:59.482Z,12.85
2022-12-31T02:28:27.875Z,9.85
2022-12-31T02:30:06.813Z,7.88
2022-12-31T02:31:18.282Z,8.60
2022-12-31T02:32:32.450Z,8.68
2022-12-31T02:33:47.476Z,6.75
2022-12-31T02:35:01.085Z,7.75
2022-12-31T02:36:09.759Z,6.53
2022-12-31T02:37:14.450Z,9.68
2022-12-31T02:38:22.509Z,8.57
2022-12-31T02:39:25.350Z,9.23
2022-12-31T02:40:28.087Z,6.65
2022-12-31T02:41:49.126Z,5.07
2022-12-31T02:42:55.315Z,5.30
2022-12-31T02:43:57.954Z,4.90
2022-12-31T02:45:00.224Z,9.48
2022-12-31T02:46:16.051Z,7.72
2022-12-31T02:47:42.692Z,7.45
2022-12-31T02:49:04.869Z,7.60
2022-12-31T02:50:55.398Z,5.10
2022-12-31T02:52:20.899Z,5.00
2022-12-31T02:53:33.863Z,4.80
2022-12-31T02:54:41.744Z,4.00
2022-12-31T02:56:16.418Z,5.97
2022-12-31T02:57:46.667Z,4.50
2022-12-31T02:59:27.430Z,4.90
2022-12-31T03:00:50.052Z,11.43
2022-12-31T03:02:15.567Z,34.55
2022-12-31T03:03:20.241Z,21.83
2022-12-31T03:04:32.715Z,45.40
2022-12-31T03:05:40.283Z,24.00
2022-12-31T03:06:43.511Z,28.05
2022-12-31T03:07:46.241Z,27.33
2022-12-31T03:09:07.366Z,13.43
2022-12-31T03:10:10.220Z,10.10
2022-12-31T03:11:32.532Z,8.23
2022-12-31T03:12:48.384Z,10.15
2022-12-31T03:13:50.817Z,10.07
2022-12-31T03:14:53.407Z,9.10
2022-12-31T03:15:55.869Z,9.00
2022-12-31T03:16:58.389Z,11.68
2022-12-31T03:18:00.647Z,9.65
2022-12-31T03:19:21.708Z,6.50
2022-12-31T03:21:04.454Z,7.47
2022-12-31T03:22:25.453Z,6.35
2022-12-31T03:23:32.321Z,7.50
2022-12-31T03:24:53.529Z,8.00
2022-12-31T03:25:56.414Z,10.85
2022-12-31T03:26:58.757Z,5.65
2022-12-31T03:28:08.118Z,4.78
2022-12-31T03:29:10.747Z,12.77
2022-12-31T03:30:18.505Z,6.03
2022-12-31T03:31:21.117Z,4.15
2022-12-31T03:32:23.623Z,5.88
2022-12-31T03:33:29.980Z,4.00
2022-12-31T03:34:32.384Z,3.33
2022-12-31T03:35:36.792Z,5.10
2022-12-31T03:36:39.569Z,6.00
2022-12-31T03:37:42.878Z,4.47
2022-12-31T03:38:48.571Z,5.28
2022-12-31T03:39:54.928Z,6.63
2022-12-31T03:40:57.245Z,4.72
2022-12-31T03:42:00.974Z,3.75
2022-12-31T03:43:03.307Z,4.07
2022-12-31T03:44:06.146Z,3.60
2022-12-31T03:45:13.150Z,6.72
2022-12-31T03:46:15.717Z,7.10
2022-12-31T03:47:18.095Z,9.32
2022-12-31T03:48:23.062Z,2.85
2022-12-31T03:49:25.396Z,7.15
2022-12-31T03:50:28.633Z,4.95
2022-12-31T03:51:30.991Z,3.75
2022-12-31T03:52:33.347Z,3.88
2022-12-31T03:53:35.656Z,4.72
2022-12-31T03:54:37.996Z,3.42
2022-12-31T03:55:40.307Z,3.35
2022-12-31T03:56:42.929Z,4.05
2022-12-31T03:57:45.440Z,2.95
2022-12-31T03:58:47.830Z,3.25
2022-12-31T03:59:50.199Z,3.53
2022-12-31T04:00:52.714Z,2.97
2022-12-31T04:01:55.289Z,2.05
2022-12-31T04:02:58.013Z,2.17
2022-12-31T04:04:00.359Z,7.97
2022-12-31T04:05:03.119Z,33.00
2022-12-31T04:06:05.598Z,25.02
2022-12-31T04:07:08.094Z,15.27
2022-12-31T04:08:10.415Z,9.52
2022-12-31T04:09:12.732Z,6.18
2022-12-31T04:10:17.203Z,5.75
2022-12-31T04:11:21.212Z,6.75
2022-12-31T04:12:23.721Z,4.30
2022-12-31T04:13:26.186Z,4.88
2022-12-31T04:14:28.605Z,6.13
2022-12-31T04:15:30.928Z,4.68
2022-12-31T04:16:33.283Z,4.50
2022-12-31T04:17:35.694Z,3.28
2022-12-31T04:18:37.961Z,3.25
2022-12-31T04:19:40.280Z,5.05
2022-12-31T04:20:42.598Z,4.10
2022-12-31T04:21:45.113Z,4.95
2022-12-31T04:22:48.147Z,7.70
2022-12-31T04:23:50.545Z,4.70
2022-12-31T04:24:52.840Z,3.00
2022-12-31T04:25:55.167Z,3.22
2022-12-31T04:27:03.637Z,10.60
2022-12-31T04:28:09.466Z,31.77
2022-12-31T04:29:11.848Z,27.25
2022-12-31T04:30:14.530Z,9.82
2022-12-31T04:31:16.928Z,10.80
2022-12-31T04:32:19.330Z,8.35
2022-12-31T04:33:21.635Z,6.22
2022-12-31T04:34:23.997Z,5.43
2022-12-31T04:35:26.311Z,5.43
2022-12-31T04:36:28.569Z,7.82
2022-12-31T04:37:30.858Z,4.38
2022-12-31T04:38:34.203Z,10.30
2022-12-31T04:39:36.620Z,8.02
2022-12-31T04:40:58.979Z,4.47
2022-12-31T04:42:01.381Z,7.03
2022-12-31T04:43:03.707Z,3.10
2022-12-31T04:44:06.052Z,3.60
2022-12-31T04:45:08.878Z,3.40
2022-12-31T04:46:11.294Z,3.45
2022-12-31T04:47:16.287Z,2.67
2022-12-31T04:48:22.468Z,3.70
2022-12-31T04:49:24.736Z,3.40
2022-12-31T04:50:27.052Z,2.97
2022-12-31T04:51:30.540Z,2.28
2022-12-31T04:52:37.058Z,1.77
2022-12-31T04:53:42.796Z,3.45
2022-12-31T04:54:45.168Z,6.53
2022-12-31T04:55:47.527Z,3.38
2022-12-31T04:56:49.818Z,2.78
2022-12-31T04:57:52.192Z,1.92
2022-12-31T04:58:54.817Z,1.60
2022-12-31T04:59:57.250Z,3.03
2022-12-31T05:01:00.046Z,1.75
2022-12-31T05:02:02.685Z,1.38
2022-12-31T05:03:05.301Z,2.22
2022-12-31T05:04:07.839Z,2.58
2022-12-31T05:05:10.269Z,2.63
2022-12-31T05:06:20.114Z,2.25
2022-12-31T05:07:22.399Z,2.78
2022-12-31T05:08:24.662Z,2.47
2022-12-31T05:09:28.324Z,1.52
2022-12-31T05:10:30.779Z,3.53
2022-12-31T05:11:33.182Z,1.85
2022-12-31T05:12:35.629Z,2.20
2022-12-31T05:13:38.247Z,1.60
2022-12-31T05:14:40.540Z,2.80
2022-12-31T05:15:43.105Z,145.57
2022-12-31T05:16:45.449Z,45.03
2022-12-31T05:17:47.749Z,68.05
2022-12-31T05:18:50.187Z,120.07
2022-12-31T05:19:52.489Z,57.00
2022-12-31T05:20:54.816Z,43.38
2022-12-31T05:22:15.842Z,34.13
2022-12-31T05:23:18.490Z,16.70
2022-12-31T05:24:20.994Z,18.00
2022-12-31T05:25:23.394Z,13.40
2022-12-31T05:26:25.783Z,13.90
2022-12-31T05:27:30.971Z,15.75
2022-12-31T05:28:33.513Z,13.80
2022-12-31T05:29:35.768Z,13.52
2022-12-31T05:30:38.760Z,11.88
2022-12-31T05:31:41.132Z,10.13
2022-12-31T05:32:43.486Z,13.75
2022-12-31T05:33:45.816Z,11.60
2022-12-31T05:34:48.171Z,10.35
2022-12-31T05:35:50.602Z,9.32
2022-12-31T05:36:52.961Z,7.60
2022-12-31T05:37:55.434Z,9.07
2022-12-31T05:38:57.784Z,11.05
2022-12-31T05:40:00.295Z,6.47
2022-12-31T05:41:07.727Z,12.05
2022-12-31T05:42:10.129Z,6.53
2022-12-31T05:43:12.397Z,7.53
2022-12-31T05:44:14.701Z,6.60
2022-12-31T05:45:18.455Z,6.38
2022-12-31T05:46:20.884Z,5.55
2022-12-31T05:47:23.536Z,6.82
2022-12-31T05:48:25.817Z,5.75
2022-12-31T05:49:28.088Z,6.00
2022-12-31T05:50:30.537Z,5.05
2022-12-31T05:51:36.281Z,4.80
2022-12-31T05:52:38.913Z,6.40
2022-12-31T05:53:41.251Z,5.75
2022-12-31T05:54:43.634Z,5.63
2022-12-31T05:55:48.915Z,5.85
2022-12-31T05:56:51.480Z,5.22
2022-12-31T05:57:53.828Z,4.90
2022-12-31T05:58:56.657Z,7.85
2022-12-31T05:59:58.990Z,4.57
2022-12-31T06:01:01.414Z,5.10
2022-12-31T06:02:04.101Z,3.60
2022-12-31T06:03:06.555Z,6.07
2022-12-31T06:04:09.052Z,5.97
2022-12-31T06:05:12.276Z,3.90
2022-12-31T06:06:14.639Z,4.20
2022-12-31T06:07:16.945Z,6.10
2022-12-31T06:08:19.271Z,5.20
2022-12-31T06:09:22.148Z,3.85
2022-12-31T06:10:24.481Z,3.00
2022-12-31T06:11:26.847Z,2.75
2022-12-31T06:12:29.255Z,4.28
2022-12-31T06:13:31.608Z,4.50
2022-12-31T06:14:33.996Z,3.45
2022-12-31T06:15:40.139Z,3.10
2022-12-31T06:16:43.251Z,2.65
2022-12-31T06:17:45.712Z,3.60
2022-12-31T06:18:50.715Z,2.63
2022-12-31T06:19:53.066Z,2.58
2022-12-31T06:20:58.481Z,3.17
2022-12-31T06:22:00.965Z,3.78
2022-12-31T06:23:03.568Z,2.63
2022-12-31T06:24:06.281Z,1.92
2022-12-31T06:25:09.100Z,3.85
2022-12-31T06:26:11.448Z,4.47
2022-12-31T06:27:13.780Z,2.75
2022-12-31T06:28:20.300Z,4.78
2022-12-31T06:29:22.985Z,4.47
2022-12-31T06:30:25.304Z,5.80
2022-12-31T06:31:27.963Z,2.60
2022-12-31T06:32:30.636Z,1.33
2022-12-31T06:33:33.425Z,4.45
2022-12-31T06:34:35.733Z,3.55
2022-12-31T06:35:38.454Z,2.65
2022-12-31T06:36:40.980Z,1.27
2022-12-31T06:37:43.294Z,3.67
2022-12-31T06:38:45.592Z,1.77
2022-12-31T06:39:47.978Z,2.80
2022-12-31T06:40:50.775Z,2.38
2022-12-31T06:41:53.269Z,1.88
2022-12-31T06:42:59.827Z,1.50
2022-12-31T06:44:02.906Z,3.25
2022-12-31T06:45:05.836Z,3.53
2022-12-31T06:46:11.817Z,2.65
2022-12-31T06:47:14.182Z,1.30
2022-12-31T06:48:16.639Z,1.27
2022-12-31T06:49:19.059Z,4.00
2022-12-31T06:50:21.360Z,1.40
2022-12-31T06:51:23.877Z,3.90
2022-12-31T06:52:26.163Z,1.45
2022-12-31T06:53:28.521Z,1.70
2022-12-31T06:54:30.940Z,1.30
2022-12-31T06:55:34.470Z,1.00
2022-12-31T06:56:38.146Z,1.05
2022-12-31T06:57:40.978Z,1.02
2022-12-31T06:58:44.140Z,2.72
2022-12-31T06:59:46.746Z,4.88
2022-12-31T07:01:22.693Z,1.35
2022-12-31T07:02:30.964Z,1.95
2022-12-31T07:03:50.319Z,1.27
2022-12-31T07:05:21.354Z,1.42
2022-12-31T07:06:34.291Z,1.07
2022-12-31T07:08:10.232Z,6.88
2022-12-31T07:09:25.133Z,1.75
2022-12-31T07:10:46.122Z,1.67
2022-12-31T07:12:15.662Z,1.15
2022-12-31T07:13:25.189Z,1.20
2022-12-31T07:14:48.416Z,1.65
2022-12-31T07:17:46.229Z,1.23
2022-12-31T07:19:03.431Z,1.60
2022-12-31T07:20:14.267Z,1.58
2022-12-31T07:21:31.763Z,1.13
2022-12-31T07:22:34.445Z,2.15
2022-12-31T07:23:37.091Z,1.60
2022-12-31T07:24:39.803Z,1.80
2022-12-31T07:25:53.177Z,13.85
2022-12-31T07:27:04.320Z,0.90
2022-12-31T07:28:34.889Z,3.25
2022-12-31T07:29:45.655Z,2.00
2022-12-31T07:31:07.482Z,1.73
2022-12-31T07:32:35.676Z,2.17
2022-12-31T07:33:51.688Z,2.30
2022-12-31T07:35:08.851Z,1.60
2022-12-31T07:36:20.032Z,2.60
2022-12-31T07:37:43.849Z,2.25
2022-12-31T07:39:10.306Z,2.22
2022-12-31T07:40:12.641Z,2.75
2022-12-31T07:41:20.750Z,3.30
2022-12-31T07:42:35.777Z,1.98
2022-12-31T07:43:59.961Z,2.83
2022-12-31T07:45:26.545Z,2.65
2022-12-31T07:46:43.898Z,2.55
2022-12-31T07:47:46.582Z,2.22
2022-12-31T07:48:49.123Z,2.53
2022-12-31T07:49:52.103Z,2.92
2022-12-31T07:50:56.643Z,2.97
2022-12-31T07:51:59.494Z,1.83
2022-12-31T07:53:02.128Z,2.30
2022-12-31T07:54:10.193Z,3.55
2022-12-31T07:55:16.508Z,2.40
2022-12-31T07:56:18.847Z,2.50
2022-12-31T07:57:27.293Z,1.75
2022-12-31T07:58:48.420Z,2.67
2022-12-31T07:59:56.688Z,2.63
2022-12-31T08:01:00.195Z,2.33
2022-12-31T08:02:15.624Z,2.10
2022-12-31T08:03:27.229Z,4.32
2022-12-31T08:06:01.455Z,2.42
2022-12-31T08:07:34.196Z,2.38
2022-12-31T08:09:16.141Z,2.58
2022-12-31T08:10:37.423Z,5.18
2022-12-31T08:11:59.512Z,2.78
2022-12-31T08:14:29.995Z,1.67
2022-12-31T08:15:33.185Z,1.98
2022-12-31T08:16:35.967Z,2.55
2022-12-31T08:17:38.663Z,2.22
2022-12-31T08:18:44.249Z,2.08
2022-12-31T08:19:47.104Z,4.20
2022-12-31T08:21:05.009Z,2.05
2022-12-31T08:22:15.250Z,3.50
2022-12-31T08:23:28.410Z,2.47
2022-12-31T08:24:49.153Z,3.47
2022-12-31T08:26:18.677Z,2.17
2022-12-31T08:27:51.563Z,2.90
2022-12-31T08:29:04.568Z,2.30
2022-12-31T08:30:14.958Z,3.25
2022-12-31T08:31:21.398Z,3.13
2022-12-31T08:32:29.059Z,2.80
2022-12-31T08:34:06.178Z,4.50
2022-12-31T08:35:56.326Z,4.63
2022-12-31T08:37:13.213Z,3.47
2022-12-31T08:38:56.096Z,4.47
2022-12-31T08:40:08.040Z,2.60
2022-12-31T08:41:13.942Z,4.22
2022-12-31T08:42:53.731Z,1.98
2022-12-31T08:44:01.973Z,3.45
2022-12-31T08:45:35.865Z,4.60
2022-12-31T08:46:56.778Z,3.83
2022-12-31T08:48:24.677Z,7.82
2022-12-31T08:49:30.089Z,3.50
2022-12-31T08:50:32.744Z,3.80
2022-12-31T08:51:35.507Z,4.43
2022-12-31T08:52:38.211Z,2.90
2022-12-31T08:53:40.924Z,3.13
2022-12-31T08:54:43.505Z,2.67
2022-12-31T08:55:47.633Z,2.47
2022-12-31T08:57:04.569Z,4.55
2022-12-31T08:58:22.600Z,2.72
2022-12-31T08:59:29.962Z,2.28
2022-12-31T09:00:33.698Z,2.05
2022-12-31T09:01:50.890Z,2.28
2022-12-31T09:03:31.839Z,3.92
2022-12-31T09:04:53.781Z,2.90
2022-12-31T09:06:44.211Z,4.00
2022-12-31T09:08:24.938Z,2.65
2022-12-31T09:09:39.491Z,2.05
2022-12-31T09:10:58.562Z,3.25
2022-12-31T09:12:23.317Z,2.55
2022-12-31T09:13:58.854Z,5.10
2022-12-31T09:15:25.574Z,4.30
2022-12-31T09:16:44.263Z,3.88
2022-12-31T09:17:51.033Z,3.38
2022-12-31T09:18:54.136Z,3.13
2022-12-31T09:19:57.445Z,4.80
2022-12-31T09:21:00.695Z,4.25
2022-12-31T09:22:04.109Z,5.72
2022-12-31T09:23:06.855Z,3.70
2022-12-31T09:24:12.291Z,3.00
2022-12-31T09:25:16.862Z,3.05
2022-12-31T09:26:46.015Z,3.10
2022-12-31T09:28:31.520Z,3.65
2022-12-31T09:29:55.148Z,2.92
2022-12-31T09:31:11.887Z,2.15
2022-12-31T09:32:19.908Z,3.80
2022-12-31T09:33:25.083Z,2.60
2022-12-31T09:34:45.694Z,2.65
2022-12-31T09:35:58.348Z,2.97
2022-12-31T09:37:06.847Z,4.28
2022-12-31T09:38:20.656Z,2.88
2022-12-31T09:39:27.309Z,3.33
2022-12-31T09:40:32.659Z,2.75
2022-12-31T09:42:04.151Z,3.50
2022-12-31T09:43:24.575Z,2.83
2022-12-31T09:44:58.341Z,3.80
2022-12-31T09:46:23.071Z,2.60
2022-12-31T09:48:00.089Z,3.97
2022-12-31T09:49:21.550Z,1.73
2022-12-31T09:50:43.489Z,2.83
2022-12-31T09:52:09.044Z,3.40
2022-12-31T09:53:22.932Z,2.38
2022-12-31T09:54:47.675Z,2.38
2022-12-31T09:56:05.767Z,3.65
2022-12-31T09:57:40.587Z,4.63
2022-12-31T09:59:10.198Z,2.63
2022-12-31T10:00:23.786Z,1.80
2022-12-31T10:01:48.553Z,1.80
2022-12-31T10:03:24.677Z,2.70
2022-12-31T10:04:55.181Z,3.38
2022-12-31T10:06:24.394Z,2.80
2022-12-31T10:07:55.617Z,1.95
2022-12-31T10:09:21.826Z,3.80
2022-12-31T10:10:46.901Z,2.63
2022-12-31T10:11:58.273Z,2.15
2022-12-31T10:13:20.244Z,2.97
2022-12-31T10:14:29.345Z,2.47
2022-12-31T10:15:41.546Z,3.17
2022-12-31T10:16:58.881Z,4.10
2022-12-31T10:18:24.654Z,2.75
2022-12-31T10:19:51.467Z,4.10
2022-12-31T10:21:06.707Z,2.47
2022-12-31T10:22:34.659Z,2.45
2022-12-31T10:23:52.371Z,2.50
2022-12-31T10:25:00.579Z,5.25
2022-12-31T10:26:30.064Z,5.60
2022-12-31T10:27:32.480Z,4.95
2022-12-31T10:28:55.019Z,4.97
2022-12-31T10:30:03.633Z,5.05
2022-12-31T10:31:39.906Z,3.33
2022-12-31T10:32:54.152Z,3.20
2022-12-31T10:34:31.068Z,4.90
2022-12-31T10:36:10.329Z,2.50
2022-12-31T10:37:18.384Z,4.03
2022-12-31T10:38:51.545Z,5.18
2022-12-31T10:40:19.931Z,3.22
2022-12-31T10:41:43.579Z,3.40
2022-12-31T10:43:27.989Z,2.72
2022-12-31T10:45:02.095Z,4.63
2022-12-31T10:46:32.344Z,4.82
2022-12-31T10:47:59.380Z,1.48
2022-12-31T10:49:21.596Z,3.38
2022-12-31T10:50:42.856Z,6.95
2022-12-31T10:52:02.371Z,5.20
2022-12-31T10:53:13.519Z,1.55
2022-12-31T10:54:53.127Z,3.20
2022-12-31T10:56:17.377Z,2.83
2022-12-31T10:58:03.754Z,4.78
2022-12-31T10:59:31.024Z,2.67
2022-12-31T11:01:04.100Z,1.80
2022-12-31T11:02:48.416Z,1.38
2022-12-31T11:04:29.832Z,3.00
2022-12-31T11:05:54.721Z,1.35
2022-12-31T11:07:15.544Z,2.85
2022-12-31T11:08:51.599Z,2.72
2022-12-31T11:10:09.016Z,3.20
2022-12-31T11:11:17.559Z,3.63
2022-12-31T11:12:57.298Z,1.75
2022-12-31T11:14:24.000Z,6.07
2022-12-31T11:16:07.574Z,2.45
2022-12-31T11:17:32.878Z,1.70
2022-12-31T11:19:02.275Z,2.17
2022-12-31T11:20:20.599Z,4.03
2022-12-31T11:22:07.865Z,4.00
2022-12-31T11:23:39.017Z,4.22
2022-12-31T11:25:12.724Z,1.40
2022-12-31T11:26:15.071Z,4.20
2022-12-31T11:27:49.278Z,2.08
2022-12-31T11:29:30.019Z,2.03
2022-12-31T11:30:54.241Z,4.15
2022-12-31T11:32:01.843Z,1.25
2022-12-31T11:33:18.527Z,6.03
2022-12-31T11:34:34.532Z,1.48
2022-12-31T11:36:14.138Z,1.85
2022-12-31T11:37:44.263Z,1.15
2022-12-31T11:38:52.522Z,1.27
2022-12-31T11:39:54.779Z,3.08
2022-12-31T11:41:09.597Z,0.70
2022-12-31T11:42:41.559Z,1.08
2022-12-31T11:44:59.819Z,3.03
2022-12-31T11:46:38.617Z,3.78
2022-12-31T11:50:01.937Z,0.35
2022-12-31T11:51:46.860Z,3.38
2022-12-31T11:53:18.842Z,1.05
2022-12-31T11:54:36.197Z,1.23
2022-12-31T11:55:47.436Z,1.25
2022-12-31T11:57:03.365Z,0.47
2022-12-31T11:58:16.743Z,0.50
2022-12-31T11:59:19.963Z,2.08
2022-12-31T12:00:25.020Z,0.85
2022-12-31T12:01:34.234Z,1.95
2022-12-31T12:02:42.544Z,1.05
2022-12-31T12:03:45.969Z,0.40
2022-12-31T12:04:50.809Z,9.27
2022-12-31T12:05:53.328Z,1.27
2022-12-31T12:06:55.907Z,0.60
2022-12-31T12:07:58.252Z,0.35
2022-12-31T12:09:06.879Z,0.30
2022-12-31T12:10:37.283Z,0.40
2022-12-31T12:11:41.309Z,1.10
2022-12-31T12:12:43.763Z,1.48
2022-12-31T12:13:46.617Z,1.35
2022-12-31T12:14:54.027Z,0.10
2022-12-31T12:16:00.282Z,0.65
2022-12-31T12:17:07.363Z,0.30
2022-12-31T12:18:23.194Z,4.03
2022-12-31T12:19:30.258Z,0.38
2022-12-31T12:20:36.652Z,0.82
2022-12-31T12:21:46.471Z,0.50
2022-12-31T12:22:54.300Z,0.15
2022-12-31T12:24:01.753Z,2.38
2022-12-31T12:25:08.100Z,0.30
2022-12-31T12:26:46.101Z,0.40
2022-12-31T12:27:48.979Z,0.50
2022-12-31T12:28:51.235Z,1.33
2022-12-31T12:29:53.582Z,0.43
2022-12-31T12:31:02.605Z,0.50
2022-12-31T12:32:17.171Z,0.40
2022-12-31T12:33:20.367Z,3.28
2022-12-31T12:34:50.156Z,0.47
2022-12-31T12:35:52.640Z,0.80
2022-12-31T12:36:55.129Z,0.52
2022-12-31T12:38:06.228Z,6.22
2022-12-31T12:39:23.811Z,1.10
2022-12-31T12:40:33.827Z,0.98
2022-12-31T12:41:36.797Z,0.88
2022-12-31T12:42:49.964Z,3.83
2022-12-31T12:44:14.168Z,0.75
2022-12-31T12:45:19.992Z,1.17
2022-12-31T12:46:38.405Z,0.20
2022-12-31T12:47:43.798Z,0.55
2022-12-31T12:48:49.485Z,0.73
2022-12-31T12:49:54.850Z,2.13
2022-12-31T12:50:58.188Z,0.50
2022-12-31T12:52:47.666Z,2.38
2022-12-31T12:54:01.278Z,2.03
2022-12-31T12:55:03.743Z,0.20
2022-12-31T12:56:31.065Z,0.20
2022-12-31T12:57:33.388Z,0.15
2022-12-31T12:58:59.832Z,0.80
2022-12-31T13:00:19.689Z,0.20
2022-12-31T13:01:49.826Z,1.65
2022-12-31T13:03:22.266Z,1.60
2022-12-31T13:05:00.080Z,1.30
2022-12-31T13:06:27.999Z,0.50
2022-12-31T13:07:41.046Z,0.88
2022-12-31T13:09:09.014Z,0.82
2022-12-31T13:10:50.137Z,1.55
2022-12-31T13:12:05.413Z,0.50
2022-12-31T13:13:34.002Z,0.88
2022-12-31T13:14:48.151Z,1.58
2022-12-31T13:16:00.855Z,1.70
2022-12-31T13:17:40.723Z,1.08
2022-12-31T13:19:07.800Z,1.35
2022-12-31T13:20:26.477Z,0.85
2022-12-31T13:21:53.781Z,1.52
2022-12-31T13:23:10.854Z,4.53
2022-12-31T13:24:25.258Z,1.60
2022-12-31T13:25:33.085Z,0.75
2022-12-31T13:26:44.812Z,1.98
2022-12-31T13:27:51.043Z,4.85
2022-12-31T13:28:54.359Z,0.77
2022-12-31T13:30:01.150Z,2.65
2022-12-31T13:31:09.563Z,0.90
2022-12-31T13:32:19.386Z,1.13
2022-12-31T13:33:40.224Z,6.95
2022-12-31T13:34:46.200Z,2.33
2022-12-31T13:35:58.753Z,0.98
2022-12-31T13:37:13.670Z,0.80
2022-12-31T13:38:21.721Z,1.08
2022-12-31T13:39:28.573Z,0.77
2022-12-31T13:40:44.652Z,0.73
2022-12-31T13:41:53.621Z,1.17
2022-12-31T13:43:04.729Z,1.02
2022-12-31T13:44:33.082Z,0.88
2022-12-31T13:45:43.531Z,1.00
2022-12-31T13:46:54.428Z,1.40
2022-12-31T13:48:12.937Z,9.73
2022-12-31T13:49:26.907Z,0.70
2022-12-31T13:50:40.334Z,1.85
2022-12-31T13:51:48.511Z,1.55
2022-12-31T13:53:12.257Z,1.80
2022-12-31T13:54:44.436Z,1.83
2022-12-31T13:55:58.781Z,1.45
2022-12-31T13:57:05.926Z,1.65
2022-12-31T13:58:38.358Z,1.27
2022-12-31T13:59:46.582Z,1.42
2022-12-31T14:00:59.746Z,1.27
2022-12-31T14:02:28.368Z,0.70
2022-12-31T14:03:36.858Z,3.15
2022-12-31T14:04:48.612Z,0.98
2022-12-31T14:06:17.609Z,2.65
2022-12-31T14:07:36.386Z,1.83
2022-12-31T14:08:41.407Z,0.90
2022-12-31T14:09:43.868Z,1.63
2022-12-31T14:11:05.521Z,1.10
2022-12-31T14:13:36.636Z,1.27
2022-12-31T14:15:00.546Z,1.13
2022-12-31T14:16:24.640Z,3.67
2022-12-31T14:17:42.426Z,3.22
2022-12-31T14:19:28.984Z,1.00
2022-12-31T14:20:47.579Z,1.25
2022-12-31T14:22:10.159Z,1.23
2022-12-31T14:23:34.286Z,0.80
2022-12-31T14:24:50.530Z,1.90
2022-12-31T14:25:58.587Z,2.42
2022-12-31T14:27:05.271Z,1.02
2022-12-31T14:28:17.508Z,0.95
2022-12-31T14:29:31.807Z,1.38
2022-12-31T14:30:38.778Z,1.10
2022-12-31T14:31:51.753Z,0.65
2022-12-31T14:33:21.044Z,4.75
2022-12-31T14:34:49.703Z,2.25
2022-12-31T14:35:55.092Z,4.30
2022-12-31T14:37:13.698Z,3.17
2022-12-31T14:38:42.223Z,2.28
2022-12-31T14:40:04.380Z,4.15
2022-12-31T14:41:31.836Z,2.95
2022-12-31T14:42:48.906Z,1.25
2022-12-31T14:44:18.680Z,1.00
2022-12-31T14:45:47.613Z,2.50
2022-12-31T14:47:17.056Z,0.95
2022-12-31T14:48:36.881Z,1.58
2022-12-31T14:49:44.939Z,2.47
2022-12-31T14:50:47.603Z,1.25
2022-12-31T14:51:49.889Z,2.10
2022-12-31T14:53:02.248Z,1.42
2022-12-31T14:54:05.011Z,1.27
2022-12-31T14:55:10.135Z,2.20
2022-12-31T14:56:42.261Z,3.25
2022-12-31T14:58:25.725Z,1.98
2022-12-31T14:59:50.997Z,1.83
2022-12-31T15:00:56.757Z,2.53
2022-12-31T15:01:59.553Z,1.67
2022-12-31T15:03:22.790Z,1.85
2022-12-31T15:04:43.683Z,1.30
2022-12-31T15:06:01.767Z,1.23
2022-12-31T15:07:13.595Z,2.17
2022-12-31T15:08:54.441Z,0.88
2022-12-31T15:10:26.725Z,1.23
2022-12-31T15:11:49.855Z,1.08
2022-12-31T15:13:13.348Z,1.17
2022-12-31T15:14:24.865Z,0.75
2022-12-31T15:15:43.612Z,2.53
2022-12-31T15:16:58.965Z,2.22
2022-12-31T15:18:28.552Z,1.10
2022-12-31T15:20:16.707Z,1.05
2022-12-31T15:21:53.528Z,1.67
2022-12-31T15:22:56.253Z,1.20
2022-12-31T15:23:58.744Z,1.02
2022-12-31T15:25:01.644Z,1.95
2022-12-31T15:26:05.514Z,1.42
2022-12-31T15:27:30.784Z,1.52
2022-12-31T15:28:36.249Z,1.92
2022-12-31T15:29:45.599Z,0.80
2022-12-31T15:30:49.664Z,1.67
2022-12-31T15:31:52.675Z,0.77
2022-12-31T15:33:00.933Z,2.38
2022-12-31T15:34:06.484Z,1.55
2022-12-31T15:35:20.915Z,1.38
2022-12-31T15:36:26.951Z,5.40
2022-12-31T15:37:36.200Z,1.20
2022-12-31T15:38:40.683Z,0.73
2022-12-31T15:39:43.475Z,1.33
2022-12-31T15:40:48.307Z,2.45
2022-12-31T15:42:35.491Z,1.60
2022-12-31T15:43:25.060Z,0.93
2022-12-31T15:44:41.965Z,2.70
2022-12-31T15:45:48.098Z,1.30
2022-12-31T15:46:57.888Z,6.63
2022-12-31T15:48:05.632Z,1.25
2022-12-31T15:49:18.094Z,1.17
2022-12-31T15:50:23.710Z,1.38
2022-12-31T15:51:30.679Z,1.50
2022-12-31T15:52:41.679Z,4.93
2022-12-31T15:53:52.472Z,1.25
2022-12-31T15:54:57.120Z,1.77
2022-12-31T15:56:01.559Z,2.53
2022-12-31T15:57:09.209Z,1.88
2022-12-31T15:58:19.167Z,2.05